Time;durP1;ratioP1;P1;durP2;ratioP2;P2;SDS_P1;SDS_P2;PMS_P1;PMS_P2;Temp;Humidity;BMP_temperature;BMP_pressure;BME280_temperature;BME280_humidity;BME280_pressure;Samples;Min_cycle;Max_cycle;Signal;HPM_P1;HPM_P2
2022/09/03 00:00:44;;;;;;;2.38;1.10;;;25.80;59.40;;;;;;5032856;28;20029;-58
2022/09/03 00:03:26;;;;;;;1.45;0.80;;;25.80;53.80;;;;;;5032811;28;20029;-58
2022/09/03 00:06:00;;;;;;;1.58;0.88;;;25.90;53.80;;;;;;5032842;28;20026;-57
2022/09/03 00:08:32;;;;;;;1.38;0.70;;;25.70;59.40;;;;;;5032726;28;20029;-58
2022/09/03 00:10:58;;;;;;;1.48;0.68;;;;;;;;;;5032726;28;20064;-57
2022/09/03 00:13:32;;;;;;;1.40;1.00;;;25.60;59.30;;;;;;5032788;28;20448;-57
2022/09/03 00:16:00;;;;;;;1.35;0.90;;;25.70;59.50;;;;;;5032622;28;20034;-58
2022/09/03 00:18:33;;;;;;;1.05;0.75;;;25.70;53.60;;;;;;5032552;28;20040;-58
2022/09/03 00:21:22;;;;;;;2.30;0.80;;;25.80;53.70;;;;;;5032562;28;20060;-58
2022/09/03 00:23:50;;;;;;;3.90;1.10;;;25.80;59.50;;;;;;5032476;28;20053;-58
2022/09/03 00:26:25;;;;;;;0.93;0.70;;;25.70;59.60;;;;;;5032431;28;20049;-57
2022/09/03 00:28:55;;;;;;;1.13;0.80;;;25.70;59.40;;;;;;5032541;28;20021;-57
2022/09/03 00:31:25;;;;;;;1.65;0.75;;;;;;;;;;5032712;28;20083;-58
2022/09/03 00:33:55;;;;;;;2.22;0.88;;;25.70;59.20;;;;;;5032679;28;20095;-58
2022/09/03 00:36:47;;;;;;;0.70;0.70;;;25.80;53.20;;;;;;5032251;28;20159;-58
2022/09/03 00:39:15;;;;;;;2.10;0.90;;;25.40;58.70;;;;;;5027817;28;20496;-57
2022/09/03 00:41:59;;;;;;;1.00;0.63;;;25.80;53.10;;;;;;5032215;28;20060;-58
2022/09/03 00:44:36;;;;;;;1.92;0.80;;;25.50;52.90;;;;;;5032176;28;20424;-57
2022/09/03 00:47:22;;;;;;;1.30;0.65;;;25.70;53.30;;;;;;5032238;28;20076;-57
2022/09/03 00:49:59;;;;;;;1.23;0.80;;;25.50;53.10;;;;;;5032287;28;20455;-58
2022/09/03 00:52:25;;;;;;;1.48;0.80;;;;;;;;;;5032213;28;20037;-57
2022/09/03 00:54:51;;;;;;;0.98;0.85;;;;;;;;;;5032095;28;20053;-58
2022/09/03 00:57:34;;;;;;;0.85;0.70;;;25.70;53.40;;;;;;5032048;28;20080;-57
2022/09/03 01:00:12;;;;;;;2.03;0.75;;;25.70;53.60;;;;;;5032104;28;20505;-58
2022/09/03 01:02:38;;;;;;;0.90;0.70;;;;;;;;;;5036259;28;20088;-58
2022/09/03 01:05:34;;;;;;;1.35;0.90;;;25.80;53.70;;;;;;5036113;28;20030;-57
2022/09/03 01:08:33;;;;;;;1.38;0.60;;;25.70;53.80;;;;;;5036188;28;20021;-58
2022/09/03 01:11:09;;;;;;;0.98;0.80;;;25.70;53.70;;;;;;5036175;28;20029;-57
2022/09/03 01:13:45;;;;;;;0.73;0.50;;;25.70;53.80;;;;;;5036058;28;20057;-56
2022/09/03 01:16:34;;;;;;;1.13;0.75;;;25.70;53.70;;;;;;5035907;28;20037;-57
2022/09/03 01:19:37;;;;;;;0.80;0.80;;;25.60;53.90;;;;;;5035925;28;20025;-58
2022/09/03 01:22:04;;;;;;;1.80;0.90;;;;;;;;;;5035794;28;20029;-57
2022/09/03 01:24:58;;;;;;;0.80;0.50;;;25.70;53.90;;;;;;5035736;28;20511;-58
2022/09/03 01:27:42;;;;;;;1.60;0.80;;;25.60;54.00;;;;;;5035846;28;20116;-58
2022/09/03 01:30:16;;;;;;;0.93;0.88;;;25.60;59.70;;;;;;5035769;28;20061;-58
2022/09/03 01:32:42;;;;;;;0.93;0.80;;;;;;;;;;5035934;28;20369;-58
2022/09/03 01:35:29;;;;;;;0.90;0.70;;;25.40;53.70;;;;;;5035683;28;20040;-58
2022/09/03 01:38:21;;;;;;;1.08;0.80;;;25.60;53.70;;;;;;5035548;28;20033;-57
2022/09/03 01:44:12;;;;;;;0.80;0.80;;;25.60;53.50;;;;;;5035459;28;20087;-58
2022/09/03 01:46:40;;;;;;;1.00;0.52;;;25.70;59.40;;;;;;5035314;28;20053;-57
2022/09/03 01:49:32;;;;;;;1.17;0.80;;;25.60;53.80;;;;;;5035319;28;20049;-57
2022/09/03 01:52:17;;;;;;;1.05;0.63;;;25.40;53.40;;;;;;5035535;28;20399;-57
2022/09/03 01:54:51;;;;;;;0.75;0.60;;;25.60;53.50;;;;;;5035309;28;20560;-58
2022/09/03 01:57:44;;;;;;;1.23;0.70;;;25.70;53.60;;;;;;5035180;28;20049;-57
2022/09/03 02:00:12;;;;;;;1.02;0.70;;;;;;;;;;5035124;28;20044;-57
2022/09/03 02:02:39;;;;;;;1.42;0.60;;;25.60;58.20;;;;;;5035086;28;20022;-58
2022/09/03 02:05:13;;;;;;;1.63;0.73;;;25.60;53.70;;;;;;5035183;28;20121;-58
2022/09/03 02:07:39;;;;;;;2.05;0.88;;;;;;;;;;5034984;28;20044;-57
2022/09/03 02:10:09;;;;;;;1.35;0.70;;;25.50;59.40;;;;;;5035016;28;20026;-57
2022/09/03 02:12:36;;;;;;;;;;;25.50;59.50;;;;;;5034748;28;20021;-58
2022/09/03 02:15:10;;;;;;;0.70;0.68;;;25.60;59.60;;;;;;5034926;28;19905;-58
2022/09/03 02:17:37;;;;;;;1.67;0.75;;;;;;;;;;5034780;28;20493;-56
2022/09/03 02:20:10;;;;;;;1.50;1.10;;;25.50;59.50;;;;;;5034797;28;20025;-57
2022/09/03 02:22:37;;;;;;;1.40;0.65;;;;;;;;;;5034942;28;20029;-57
2022/09/03 02:25:03;;;;;;;0.88;0.70;;;;;;;;;;5034770;28;20026;-58
2022/09/03 02:27:30;;;;;;;0.90;0.65;;;;;;;;;;5034946;28;20048;-58
2022/09/03 02:29:57;;;;;;;0.68;0.65;;;25.50;57.60;;;;;;5034656;28;20083;-58
2022/09/03 02:32:23;;;;;;;1.23;0.43;;;;;;;;;;5034874;28;20462;-58
2022/09/03 02:34:49;;;;;;;0.60;0.45;;;;;;;;;;5034747;28;20033;-58
2022/09/03 02:37:17;;;;;;;0.90;0.57;;;25.40;58.80;;;;;;5034421;28;20041;-58
2022/09/03 02:39:43;;;;;;;1.95;0.82;;;;;;;;;;5034460;28;20506;-58
2022/09/03 02:42:11;;;;;;;0.75;0.70;;;25.30;59.50;;;;;;5034616;28;20029;-57
2022/09/03 02:44:40;;;;;;;0.82;0.70;;;25.80;59.70;;;;;;5034038;28;20472;-57
2022/09/03 02:47:08;;;;;;;0.88;0.65;;;25.70;59.70;;;;;;5034375;28;20369;-58
2022/09/03 02:49:34;;;;;;;1.05;0.55;;;;;;;;;;5034230;28;20025;-58
2022/09/03 02:52:08;;;;;;;2.38;0.85;;;25.40;59.50;;;;;;5034229;28;20025;-58
2022/09/03 02:54:38;;;;;;;1.80;0.70;;;;;;;;;;5034245;28;20055;-57
2022/09/03 02:57:04;;;;;;;1.05;0.60;;;;;;;;;;5034066;28;20041;-57
2022/09/03 02:59:30;;;;;;;0.80;0.80;;;;;;;;;;5034365;28;20094;-58
2022/09/03 03:01:56;;;;;;;1.75;0.75;;;;;;;;;;5034064;28;20036;-57
2022/09/03 03:04:22;;;;;;;0.80;0.60;;;;;;;;;;5033957;28;20021;-57
2022/09/03 03:06:49;;;;;;;1.25;0.57;;;;;;;;;;5034184;28;20025;-57
2022/09/03 03:09:15;;;;;;;1.15;0.80;;;;;;;;;;5033880;28;20021;-58
2022/09/03 03:11:41;;;;;;;0.60;0.60;;;;;;;;;;5033831;28;20029;-58
2022/09/03 03:14:08;;;;;;;1.17;0.68;;;;;;;;;;5033763;28;20100;-57
2022/09/03 03:16:34;;;;;;;0.77;0.60;;;;;;;;;;5033680;28;20419;-58
2022/09/03 03:19:00;;;;;;;1.10;0.70;;;;;;;;;;5033703;28;20100;-57
2022/09/03 03:21:26;;;;;;;2.47;0.88;;;;;;;;;;5033650;28;20064;-58
2022/09/03 03:23:52;;;;;;;0.57;0.57;;;;;;;;;;5033080;28;20025;-56
2022/09/03 03:26:19;;;;;;;1.20;0.70;;;25.30;59.20;;;;;;5033188;28;20437;-57
2022/09/03 03:28:49;;;;;;;0.88;0.75;;;25.40;53.50;;;;;;5033554;28;20026;-58
2022/09/03 03:31:18;;;;;;;2.70;0.50;;;25.40;59.30;;;;;;5033536;28;20040;-58
2022/09/03 03:33:44;;;;;;;1.08;0.77;;;;;;;;;;5033354;28;20049;-57
2022/09/03 03:36:14;;;;;;;1.50;0.80;;;25.40;53.20;;;;;;5033391;28;20171;-56
2022/09/03 03:38:40;;;;;;;;;;;25.30;59.90;;;;;;5033860;28;20120;-58
2022/09/03 03:41:17;;;;;;;1.60;0.70;;;25.30;53.50;;;;;;5033183;28;19912;-58
2022/09/03 03:43:44;;;;;;;1.23;0.73;;;;;;;;;;5033253;28;20059;-58
2022/09/03 03:46:10;;;;;;;0.80;0.80;;;25.30;56.30;;;;;;5033069;28;20440;-58
2022/09/03 03:48:37;;;;;;;0.85;0.50;;;;;;;;;;5033100;28;20056;-57
2022/09/03 03:51:06;;;;;;;0.98;0.75;;;25.10;59.10;;;;;;5033099;28;20431;-58
2022/09/03 03:53:33;;;;;;;1.48;0.85;;;25.30;58.50;;;;;;5033083;28;20037;-57
2022/09/03 03:56:01;;;;;;;0.77;0.70;;;25.50;59.30;;;;;;5032962;28;20559;-58
2022/09/03 03:58:31;;;;;;;1.00;0.90;;;25.50;59.30;;;;;;5032883;28;20538;-58
2022/09/03 04:01:04;;;;;;;1.05;0.90;;;25.30;59.30;;;;;;5032888;28;20404;-57
2022/09/03 04:03:30;;;;;;;1.58;0.80;;;;;;;;;;5032858;28;20026;-58
2022/09/03 04:05:58;;;;;;;1.20;1.00;;;25.30;57.60;;;;;;5033017;28;20044;-57
2022/09/03 04:08:24;;;;;;;2.33;0.98;;;;;;;;;;5032978;28;20025;-57
2022/09/03 04:10:50;;;;;;;1.00;0.80;;;;;;;;;;5032737;28;20112;-56
2022/09/03 04:13:16;;;;;;;0.60;0.60;;;;;;;;;;5032802;28;20499;-56
2022/09/03 04:15:42;;;;;;;1.25;0.90;;;;;;;;;;5032656;28;20087;-58
2022/09/03 04:18:08;;;;;;;2.00;0.80;;;;;;;;;;5032544;28;20045;-57
2022/09/03 04:20:37;;;;;;;1.08;0.82;;;25.30;53.90;;;;;;5032579;28;20092;-57
2022/09/03 04:23:04;;;;;;;2.63;0.90;;;;;;;;;;5032609;28;20083;-58
2022/09/03 04:25:30;;;;;;;1.23;0.80;;;;;;;;;;5032590;28;20472;-57
2022/09/03 04:27:56;;;;;;;2.55;0.70;;;;;;;;;;5032490;28;20061;-57
2022/09/03 04:30:22;;;;;;;1.27;0.88;;;;;;;;;;5032695;28;20100;-57
2022/09/03 04:32:54;;;;;;;0.82;0.80;;;25.50;54.10;;;;;;5032394;28;20464;-57
2022/09/03 04:35:21;;;;;;;0.68;0.60;;;25.20;57.10;;;;;;5032040;28;20025;-57
2022/09/03 04:37:47;;;;;;;1.90;0.90;;;;;;;;;;5032359;28;20044;-57
2022/09/03 04:40:13;;;;;;;0.73;0.52;;;;;;;;;;5032287;28;20104;-57
2022/09/03 04:42:39;;;;;;;1.55;0.80;;;;;;;;;;5032226;28;20034;-57
2022/09/03 04:45:06;;;;;;;1.13;0.73;;;;;;;;;;5031946;28;20049;-58
2022/09/03 04:47:33;;;;;;;2.10;0.90;;;;;;;;;;5032350;28;20049;-57
2022/09/03 04:50:00;;;;;;;1.02;0.95;;;;;;;;;;5032270;28;20021;-57
2022/09/03 04:52:28;;;;;;;1.90;1.00;;;25.20;59.80;;;;;;5032242;28;20048;-58
2022/09/03 04:54:54;;;;;;;1.73;0.77;;;;;;;;;;5032121;28;20025;-57
2022/09/03 04:57:21;;;;;;;1.73;0.90;;;;;;;;;;5032037;28;20389;-57
2022/09/03 04:59:47;;;;;;;1.25;0.65;;;;;;;;;;5032177;28;20044;-57
2022/09/03 05:02:14;;;;;;;2.13;0.80;;;;;;;;;;5032108;28;20041;-57
2022/09/03 05:04:40;;;;;;;1.10;0.65;;;;;;;;;;5031995;28;20403;-58
2022/09/03 05:07:06;;;;;;;0.98;0.90;;;;;;;;;;5032094;28;20139;-57
2022/09/03 05:09:32;;;;;;;2.45;0.70;;;;;;;;;;5032045;28;20112;-57
2022/09/03 05:11:58;;;;;;;0.73;0.68;;;;;;;;;;5031981;28;20051;-57
2022/09/03 05:14:24;;;;;;;1.60;0.68;;;;;;;;;;5031952;28;20033;-56
2022/09/03 05:16:50;;;;;;;0.88;0.80;;;;;;;;;;5031756;28;20172;-57
2022/09/03 05:19:16;;;;;;;0.85;0.70;;;;;;;;;;5031893;28;20452;-58
2022/09/03 05:21:42;;;;;;;1.13;0.73;;;;;;;;;;5031874;28;20079;-57
2022/09/03 05:24:10;;;;;;;2.13;0.98;;;;;;;;;;5031876;28;20037;-56
2022/09/03 05:26:37;;;;;;;1.35;0.95;;;25.30;60.00;;;;;;5031916;28;20491;-57
2022/09/03 05:29:08;;;;;;;1.38;0.80;;;25.10;60.00;;;;;;5032127;28;20075;-56
2022/09/03 05:31:37;;;;;;;1.63;0.80;;;24.90;59.90;;;;;;5032042;28;20057;-57
2022/09/03 05:34:05;;;;;;;0.80;0.63;;;25.20;60.20;;;;;;5031818;28;20365;-57
2022/09/03 05:36:36;;;;;;;1.30;0.90;;;25.10;60.10;;;;;;5031664;28;20042;-58
2022/09/03 05:39:03;;;;;;;1.13;0.80;;;25.20;58.30;;;;;;5031780;28;20104;-57
2022/09/03 05:41:29;;;;;;;1.23;0.70;;;;;;;;;;5031698;28;20034;-58
2022/09/03 05:43:57;;;;;;;0.90;0.70;;;25.00;60.00;;;;;;5031614;28;20025;-57
2022/09/03 05:46:30;;;;;;;1.00;0.90;;;24.90;59.30;;;;;;5031569;28;20540;-58
2022/09/03 05:48:57;;;;;;;1.17;0.80;;;27.50;58.40;;;;;;5034501;28;20026;-58
2022/09/03 05:51:23;;;;;;;0.95;0.80;;;;;;;;;;5035360;28;20030;-58
2022/09/03 05:53:49;;;;;;;1.88;0.80;;;;;;;;;;5035316;28;20033;-57
2022/09/03 05:56:17;;;;;;;1.02;0.93;;;25.10;60.10;;;;;;5035188;28;20066;-57
2022/09/03 05:58:46;;;;;;;0.75;0.65;;;25.10;60.10;;;;;;5035209;28;20116;-57
2022/09/03 06:01:21;;;;;;;0.77;0.55;;;25.10;54.30;;;;;;5035086;28;20109;-57
2022/09/03 06:03:53;;;;;;;1.42;0.70;;;25.10;60.00;;;;;;5035278;28;20041;-58
2022/09/03 06:06:24;;;;;;;1.25;0.70;;;25.10;60.00;;;;;;5035128;28;20100;-58
2022/09/03 06:08:50;;;;;;;1.90;0.98;;;;;;;;;;5035010;28;20022;-57
2022/09/03 06:11:16;;;;;;;0.70;0.55;;;;;;;;;;5035037;28;20033;-57
2022/09/03 06:13:42;;;;;;;0.88;0.68;;;;;;;;;;5034917;28;20025;-57
2022/09/03 06:16:08;;;;;;;1.30;0.90;;;;;;;;;;5034844;28;20611;-57
2022/09/03 06:18:34;;;;;;;1.63;0.90;;;;;;;;;;5034824;28;20048;-58
2022/09/03 06:21:02;;;;;;;0.80;0.77;;;25.10;59.60;;;;;;5034796;28;20026;-56
2022/09/03 06:23:30;;;;;;;2.05;0.60;;;25.00;59.20;;;;;;5034860;28;20434;-56
2022/09/03 06:26:10;;;;;;;2.28;0.88;;;25.10;53.30;;;;;;5034735;28;20021;-57
2022/09/03 06:28:38;;;;;;;1.58;0.90;;;25.10;58.80;;;;;;5034648;28;20041;-56
2022/09/03 06:31:06;;;;;;;1.58;0.90;;;25.10;58.90;;;;;;5034488;28;20028;-56
2022/09/03 06:33:34;;;;;;;1.73;0.73;;;25.00;59.10;;;;;;5034599;28;20029;-57
2022/09/03 06:36:02;;;;;;;1.30;1.00;;;25.00;59.30;;;;;;5034364;28;20083;-58
2022/09/03 06:38:34;;;;;;;0.95;0.88;;;24.90;59.50;;;;;;5034426;28;20037;-57
2022/09/03 06:41:02;;;;;;;2.58;0.90;;;25.00;57.00;;;;;;5034496;28;20025;-57
2022/09/03 06:43:28;;;;;;;1.20;0.70;;;;;;;;;;5034247;28;20033;-57
2022/09/03 06:45:56;;;;;;;1.85;0.85;;;25.00;59.10;;;;;;5034136;28;20095;-57
2022/09/03 06:48:22;;;;;;;1.25;0.85;;;;;;;;;;5034289;28;20092;-57
2022/09/03 06:50:57;;;;;;;0.85;0.57;;;25.10;53.60;;;;;;5034155;28;20029;-57
2022/09/03 06:53:25;;;;;;;0.77;0.60;;;25.10;59.20;;;;;;5034178;28;20037;-58
2022/09/03 06:55:58;;;;;;;0.70;0.70;;;25.20;53.60;;;;;;5034061;28;20476;-57
2022/09/03 06:58:28;;;;;;;2.78;0.70;;;25.10;59.00;;;;;;5034012;28;20037;-58
2022/09/03 07:01:07;;;;;;;1.00;0.70;;;25.10;59.00;;;;;;5034053;28;20013;-58
2022/09/03 07:03:33;;;;;;;2.88;0.80;;;;;;;;;;5034064;28;20040;-57
2022/09/03 07:06:04;;;;;;;2.00;0.82;;;25.20;53.30;;;;;;5033978;28;20489;-58
2022/09/03 07:08:31;;;;;;;1.15;0.80;;;;;;;;;;5033865;28;20097;-58
2022/09/03 07:10:58;;;;;;;0.88;0.70;;;;;;;;;;5033861;28;20029;-58
2022/09/03 07:13:24;;;;;;;2.05;0.60;;;;;;;;;;5034032;28;20028;-58
2022/09/03 07:16:01;;;;;;;1.55;0.80;;;25.30;59.70;;;;;;5033839;28;20039;-58
2022/09/03 07:18:26;;;;;;;0.93;0.65;;;;;;;;;;5033995;28;20033;-58
2022/09/03 07:21:01;;;;;;;0.93;0.50;;;25.30;59.80;;;;;;5033622;28;20029;-58
2022/09/03 07:23:29;;;;;;;0.70;0.50;;;25.30;59.80;;;;;;5033648;28;20025;-58
2022/09/03 07:25:57;;;;;;;1.17;0.95;;;25.30;59.80;;;;;;5033550;28;20036;-57
2022/09/03 07:28:24;;;;;;;1.08;0.73;;;25.10;57.50;;;;;;5033742;28;20492;-58
2022/09/03 07:30:53;;;;;;;0.90;0.80;;;25.20;59.70;;;;;;5033492;28;20025;-58
2022/09/03 07:33:19;;;;;;;2.05;0.80;;;;;;;;;;5033567;28;20021;-58
2022/09/03 07:35:46;;;;;;;2.70;0.82;;;;;;;;;;5033747;28;20026;-57
2022/09/03 07:38:16;;;;;;;1.27;0.80;;;25.30;60.10;;;;;;5033260;28;20049;-58
2022/09/03 07:40:42;;;;;;;1.63;0.93;;;;;;;;;;5033249;28;20083;-58
2022/09/03 07:43:09;;;;;;;1.73;0.80;;;;;;;;;;5033195;28;20023;-58
2022/09/03 07:45:36;;;;;;;0.98;0.90;;;;;;;;;;5033036;28;20084;-58
2022/09/03 07:48:02;;;;;;;1.58;0.90;;;;;;;;;;5033407;28;20133;-58
2022/09/03 07:50:31;;;;;;;1.30;0.80;;;;;;;;;;5033093;28;20021;-59
2022/09/03 07:52:58;;;;;;;3.30;0.75;;;;;;;;;;5033242;28;20427;-58
2022/09/03 07:55:24;;;;;;;5.45;1.10;;;;;;;;;;5032915;28;20021;-58
2022/09/03 07:57:50;;;;;;;0.65;0.65;;;;;;;;;;5032695;28;20047;-57
2022/09/03 08:00:16;;;;;;;0.80;0.80;;;;;;;;;;5032757;28;20049;-58
2022/09/03 08:02:42;;;;;;;4.25;0.70;;;;;;;;;;5032740;28;20033;-59
2022/09/03 08:05:09;;;;;;;2.38;0.98;;;;;;;;;;5032863;28;20025;-56
2022/09/03 08:07:35;;;;;;;2.25;0.80;;;;;;;;;;5014950;28;20028;-57
2022/09/03 08:10:01;;;;;;;3.28;0.82;;;;;;;;;;5032114;28;20402;-56
2022/09/03 08:12:27;;;;;;;2.05;1.00;;;;;;;;;;5032531;28;20030;-55
2022/09/03 08:14:53;;;;;;;2.65;0.90;;;;;;;;;;5032621;28;20037;-57
2022/09/03 08:17:19;;;;;;;1.60;0.80;;;;;;;;;;5032384;28;20087;-56
2022/09/03 08:19:46;;;;;;;2.88;0.93;;;;;;;;;;5032403;28;20021;-57
2022/09/03 08:22:12;;;;;;;2.10;0.63;;;;;;;;;;5032478;28;20026;-56
2022/09/03 08:24:38;;;;;;;2.22;0.90;;;;;;;;;;5032522;28;20025;-57
2022/09/03 08:27:04;;;;;;;2.72;0.80;;;;;;;;;;5032561;28;20029;-57
2022/09/03 08:29:30;;;;;;;6.45;1.25;;;;;;;;;;5032472;28;20116;-57
2022/09/03 08:31:56;;;;;;;4.57;1.00;;;;;;;;;;5032793;28;20459;-56
2022/09/03 08:34:22;;;;;;;2.22;1.05;;;;;;;;;;5032396;28;20053;-57
2022/09/03 08:36:49;;;;;;;4.53;1.00;;;;;;;;;;5032294;28;20084;-57
2022/09/03 08:39:15;;;;;;;2.17;0.88;;;;;;;;;;5032377;28;20072;-57
2022/09/03 08:41:50;;;;;;;2.85;1.00;;;25.50;53.90;;;;;;5032336;28;20106;-57
2022/09/03 08:44:33;;;;;;;5.90;1.08;;;25.60;54.80;;;;;;5032181;28;20053;-57
2022/09/03 08:47:12;;;;;;;3.53;0.65;;;25.50;60.80;;;;;;5032268;28;20049;-58
2022/09/03 08:50:10;;;;;;;2.10;0.88;;;25.60;55.00;;;;;;5032465;28;20443;-57
2022/09/03 08:52:37;;;;;;;3.45;0.98;;;;;;;;;;5032125;28;20480;-57
2022/09/03 08:55:23;;;;;;;4.07;0.90;;;25.80;55.20;;;;;;5032153;28;20021;-57
2022/09/03 08:57:56;;;;;;;7.80;1.33;;;25.60;60.60;;;;;;5031984;28;20034;-57
2022/09/03 09:00:22;;;;;;;1.98;1.05;;;;;;;;;;5032081;28;20057;-58
2022/09/03 09:02:48;;;;;;;5.95;1.20;;;;;;;;;;5032098;28;20083;-57
2022/09/03 09:05:24;;;;;;;2.03;0.70;;;26.10;54.50;;;;;;5032055;28;20485;-57
2022/09/03 09:07:57;;;;;;;1.77;0.75;;;26.20;60.10;;;;;;5032199;28;20522;-57
2022/09/03 09:10:40;;;;;;;4.13;1.10;;;26.10;60.00;;;;;;5032083;28;20029;-59
2022/09/03 09:13:22;;;;;;;2.33;1.08;;;26.10;54.20;;;;;;5032053;28;20033;-60
2022/09/03 09:15:56;;;;;;;3.03;1.27;;;26.40;55.00;;;;;;5031943;28;20039;-60
2022/09/03 09:19:08;;;;;;;4.25;1.20;;;26.10;56.20;;;;;;5031910;28;20048;-60
2022/09/03 09:21:44;;;;;;;5.53;1.35;;;26.40;63.70;;;;;;5031968;28;20538;-60
2022/09/03 09:24:23;;;;;;;2.13;1.10;;;26.20;63.70;;;;;;5035224;28;20029;-60
2022/09/03 09:26:58;;;;;;;6.72;1.60;;;26.20;64.40;;;;;;5036202;28;20026;-60
2022/09/03 09:29:28;;;;;;;4.65;1.42;;;26.30;65.30;;;;;;5036059;28;20098;-60
2022/09/03 09:31:54;;;;;;;5.03;1.73;;;;;;;;;;5035823;28;20025;-59
2022/09/03 09:34:20;;;;;;;1.88;1.20;;;;;;;;;;5035687;28;20030;-59
2022/09/03 09:36:46;;;;;;;5.13;1.50;;;;;;;;;;5035692;28;20365;-60
2022/09/03 09:39:14;;;;;;;6.43;1.40;;;;;;;;;;5035408;28;20032;-60
2022/09/03 09:41:41;;;;;;;2.35;1.10;;;;;;;;;;5035295;28;20025;-60
2022/09/03 09:44:07;;;;;;;3.55;1.20;;;;;;;;;;5035197;28;20052;-60
2022/09/03 09:46:39;;;;;;;7.40;1.63;;;26.40;55.50;;;;;;5035130;28;20045;-60
2022/09/03 09:49:31;;;;;;;2.10;0.90;;;26.30;55.70;;;;;;5035540;28;20353;-59
2022/09/03 09:52:12;;;;;;;2.22;1.50;;;26.80;55.40;;;;;;5024051;28;20041;-60
2022/09/03 09:54:39;;;;;;;2.10;1.25;;;26.50;60.80;;;;;;5035098;28;20120;-60
2022/09/03 09:57:07;;;;;;;3.05;1.35;;;26.40;60.70;;;;;;5035022;28;20033;-60
2022/09/03 09:59:34;;;;;;;1.88;1.00;;;26.50;60.70;;;;;;5035136;28;20080;-60
2022/09/03 10:02:13;;;;;;;3.97;1.65;;;;;;;;;;5035015;28;20106;-60
2022/09/03 10:04:42;;;;;;;5.60;1.27;;;26.60;60.00;;;;;;5035063;28;20029;-60
2022/09/03 10:07:31;;;;;;;6.72;1.63;;;26.90;54.40;;;;;;5034891;28;20808;-60
2022/09/03 10:10:10;;;;;;;5.20;1.20;;;26.80;60.10;;;;;;5034889;28;20025;-60
2022/09/03 10:12:43;;;;;;;2.88;1.38;;;26.10;59.40;;;;;;5034819;28;20030;-60
2022/09/03 10:15:23;;;;;;;3.00;1.13;;;26.80;53.80;;;;;;5034683;28;20038;-59
2022/09/03 10:18:13;;;;;;;5.70;1.48;;;26.90;53.70;;;;;;5034592;28;20037;-60
2022/09/03 10:20:54;;;;;;;8.15;1.67;;;26.70;54.00;;;;;;5034747;28;20059;-60
2022/09/03 10:23:22;;;;;;;4.82;1.20;;;26.80;59.20;;;;;;5035003;28;20076;-55
2022/09/03 10:25:52;;;;;;;5.07;1.25;;;;;;;;;;5034555;28;20044;-56
2022/09/03 10:28:22;;;;;;;7.13;1.30;;;26.90;56.60;;;;;;5034566;28;20116;-56
2022/09/03 10:30:48;;;;;;;3.13;1.00;;;;;;;;;;5034443;28;20032;-55
2022/09/03 10:33:24;;;;;;;7.53;1.55;;;27.10;53.60;;;;;;5033922;28;20487;-53
2022/09/03 10:35:56;;;;;;;6.45;1.48;;;26.90;59.00;;;;;;5034452;28;20034;-53
2022/09/03 10:38:33;;;;;;;7.35;1.73;;;26.90;53.30;;;;;;5034368;28;20041;-56
2022/09/03 10:41:19;;;;;;;4.82;1.30;;;27.00;53.30;;;;;;5034388;28;20055;-56
2022/09/03 10:44:15;;;;;;;3.22;1.33;;;26.90;53.20;;;;;;5034175;28;20397;-55
2022/09/03 10:46:55;;;;;;;3.42;1.33;;;26.90;53.20;;;;;;5034079;28;20049;-55
2022/09/03 10:49:48;;;;;;;4.60;1.30;;;27.00;59.20;;;;;;5034207;28;20037;-55
2022/09/03 10:52:43;;;;;;;4.32;1.65;;;27.00;53.20;;;;;;5033135;28;20111;-55
2022/09/03 10:55:09;;;;;;;4.38;1.33;;;;;;;;;;5034043;28;20029;-55
2022/09/03 10:57:49;;;;;;;5.10;1.42;;;27.10;53.00;;;;;;5034065;28;20041;-55
2022/09/03 11:00:17;;;;;;;3.70;1.33;;;27.10;58.70;;;;;;5034184;28;20025;-55
2022/09/03 11:03:37;;;;;;;6.90;1.38;;;27.00;52.60;;;;;;4999943;28;20515;-55
2022/09/03 11:06:23;;;;;;;4.97;1.52;;;27.10;52.50;;;;;;5031746;28;20046;-55
2022/09/03 11:08:49;;;;;;;2.90;1.45;;;;;;;;;;5033957;28;20040;-54
2022/09/03 11:11:26;;;;;;;3.38;1.08;;;27.30;52.30;;;;;;5033912;28;20388;-55
2022/09/03 11:14:01;;;;;;;3.78;1.23;;;27.30;57.60;;;;;;5033829;28;20025;-54
2022/09/03 11:16:43;;;;;;;2.17;1.00;;;27.20;51.80;;;;;;5033916;28;20051;-54
2022/09/03 11:19:17;;;;;;;2.58;1.30;;;27.30;57.40;;;;;;5033853;28;20025;-55
2022/09/03 11:21:43;;;;;;;4.38;1.20;;;;;;;;;;5033692;28;20075;-55
2022/09/03 11:24:09;;;;;;;5.22;1.50;;;;;;;;;;5033584;28;20388;-55
2022/09/03 11:26:36;;;;;;;4.63;1.58;;;;;;;;;;5033614;28;20022;-55
2022/09/03 11:29:24;;;;;;;3.05;1.17;;;27.40;51.10;;;;;;5033564;28;20029;-55
2022/09/03 11:32:10;;;;;;;2.03;1.38;;;27.40;50.90;;;;;;5033535;28;20032;-55
2022/09/03 11:34:50;;;;;;;5.07;1.65;;;27.40;51.10;;;;;;5033583;28;20030;-55
2022/09/03 11:37:17;;;;;;;5.45;1.30;;;;;;;;;;5033241;28;20037;-53
2022/09/03 11:39:43;;;;;;;2.70;1.48;;;;;;;;;;5033357;28;20025;-55
2022/09/03 11:42:11;;;;;;;6.22;1.27;;;27.40;56.90;;;;;;5033258;28;20040;-54
2022/09/03 11:44:42;;;;;;;4.15;1.50;;;27.40;51.00;;;;;;5032687;28;20025;-54
2022/09/03 11:47:21;;;;;;;3.05;1.23;;;27.40;50.90;;;;;;5014960;28;20080;-54
2022/09/03 11:49:52;;;;;;;2.88;1.63;;;27.40;50.90;;;;;;5033230;28;20104;-53
2022/09/03 11:52:31;;;;;;;3.63;1.10;;;27.50;51.00;;;;;;5033171;28;20112;-54
2022/09/03 11:54:57;;;;;;;2.72;1.70;;;;;;;;;;5033167;28;20020;-54
2022/09/03 11:57:42;;;;;;;4.60;0.98;;;27.40;51.00;;;;;;5032930;28;20033;-55
2022/09/03 12:00:16;;;;;;;4.50;1.27;;;27.50;56.70;;;;;;5033010;28;20032;-55
2022/09/03 12:02:55;;;;;;;1.77;1.33;;;27.50;50.70;;;;;;5033040;28;20052;-55
2022/09/03 12:05:41;;;;;;;2.78;1.25;;;27.50;51.00;;;;;;5032883;28;20038;-54
2022/09/03 12:08:24;;;;;;;2.85;1.27;;;27.60;50.90;;;;;;5032899;28;20079;-54
2022/09/03 12:10:56;;;;;;;2.42;1.40;;;27.60;50.60;;;;;;5032838;28;20033;-54
2022/09/03 12:13:53;;;;;;;3.28;1.73;;;27.50;50.60;;;;;;5032928;28;20365;-54
2022/09/03 12:16:26;;;;;;;3.53;1.33;;;27.50;56.30;;;;;;5032569;28;20041;-55
2022/09/03 12:18:59;;;;;;;3.72;1.27;;;27.50;56.40;;;;;;5032938;28;20101;-51
2022/09/03 12:21:25;;;;;;;5.55;1.50;;;;;;;;;;5032627;28;20029;-54
2022/09/03 12:23:53;;;;;;;2.58;1.73;;;27.40;54.80;;;;;;5032547;28;20026;-52
2022/09/03 12:26:22;;;;;;;2.33;1.48;;;27.50;56.00;;;;;;5032469;28;20033;-55
2022/09/03 12:28:58;;;;;;;5.38;1.40;;;27.40;56.00;;;;;;5032500;28;20383;-53
2022/09/03 12:31:42;;;;;;;3.03;1.20;;;27.40;50.30;;;;;;5032546;28;20026;-55
2022/09/03 12:34:11;;;;;;;2.90;1.10;;;27.50;56.10;;;;;;5032425;28;20034;-55
2022/09/03 12:36:40;;;;;;;4.53;1.50;;;27.50;56.20;;;;;;5032332;28;20449;-55
2022/09/03 12:39:26;;;;;;;2.72;1.58;;;27.50;50.30;;;;;;5032429;28;20595;-53
2022/09/03 12:42:02;;;;;;;3.40;1.42;;;27.40;50.40;;;;;;5032606;28;20545;-52
2022/09/03 12:44:34;;;;;;;1.38;1.27;;;27.40;50.40;;;;;;5032134;28;20058;-55
2022/09/03 12:47:10;;;;;;;1.77;1.33;;;27.40;50.50;;;;;;5032140;28;20041;-53
2022/09/03 12:49:39;;;;;;;3.60;1.38;;;27.50;56.40;;;;;;5032003;28;20026;-54
2022/09/03 12:52:25;;;;;;;3.20;1.40;;;27.50;56.50;;;;;;5031958;28;20420;-54
2022/09/03 12:55:05;;;;;;;3.75;0.93;;;27.40;51.00;;;;;;5014902;28;20113;-52
2022/09/03 12:57:42;;;;;;;4.80;1.45;;;27.30;56.70;;;;;;5031801;28;20095;-55
2022/09/03 13:00:12;;;;;;;3.67;1.30;;;27.50;56.90;;;;;;5032084;28;20029;-55
2022/09/03 13:02:55;;;;;;;3.78;1.63;;;27.40;51.10;;;;;;5032313;28;20021;-53
2022/09/03 13:05:27;;;;;;;3.30;1.48;;;27.40;56.90;;;;;;5032078;28;20034;-54
2022/09/03 13:07:57;;;;;;;2.72;1.70;;;27.40;56.90;;;;;;5032157;28;20053;-59
2022/09/03 13:10:32;;;;;;;2.13;1.42;;;27.40;57.10;;;;;;5032026;28;20034;-59
2022/09/03 13:13:00;;;;;;;2.47;1.35;;;27.40;57.10;;;;;;5032024;28;20021;-59
2022/09/03 13:15:27;;;;;;;3.95;1.60;;;27.80;57.30;;;;;;5031867;28;20484;-60
2022/09/03 13:18:01;;;;;;;3.55;1.55;;;27.40;51.30;;;;;;5031835;28;20037;-59
2022/09/03 13:20:43;;;;;;;2.13;1.60;;;27.40;51.20;;;;;;5031877;28;20159;-60
2022/09/03 13:23:35;;;;;;;1.92;1.60;;;27.30;56.90;;;;;;5031964;28;20033;-59
2022/09/03 13:26:12;;;;;;;2.10;1.67;;;27.60;57.10;;;;;;5031358;28;20117;-61
2022/09/03 13:28:38;;;;;;;2.65;1.20;;;;;;;;;;5031891;28;20025;-59
2022/09/03 13:31:04;;;;;;;4.60;1.15;;;;;;;;;;5031876;28;20468;-59
2022/09/03 13:33:54;;;;;;;3.03;1.50;;;27.30;51.60;;;;;;5031660;28;20036;-58
2022/09/03 13:36:33;;;;;;;1.80;1.23;;;27.10;51.50;;;;;;5031778;28;20381;-58
2022/09/03 13:39:05;;;;;;;3.40;1.60;;;27.30;57.60;;;;;;5031841;28;20109;-58
2022/09/03 13:41:48;;;;;;;3.42;1.33;;;27.10;51.60;;;;;;5031678;28;20495;-56
2022/09/03 13:44:30;;;;;;;5.93;1.80;;;27.40;52.20;;;;;;5031537;28;20026;-58
2022/09/03 13:47:07;;;;;;;1.88;1.30;;;27.40;52.20;;;;;;5031395;28;20046;-58
2022/09/03 13:52:55;;;;;;;2.08;1.45;;;27.30;52.60;;;;;;5031703;28;20120;-57
2022/09/03 13:55:30;;;;;;;3.58;1.20;;;27.40;53.20;;;;;;5031642;28;20398;-58
2022/09/03 13:57:56;;;;;;;5.05;1.60;;;;;;;;;;5031537;28;20045;-58
2022/09/03 14:00:38;;;;;;;2.55;1.38;;;27.30;52.90;;;;;;5031624;28;20549;-58
2022/09/03 14:03:16;;;;;;;3.47;1.50;;;27.40;52.80;;;;;;5031811;28;20025;-58